aviador You're here:

EHVL Decoded Metar

VLIELAND ISLAND in NETHERLANDS
Report Time2018-07-22 13:55:00
UTC Time2018-07-22 14:18:25
Flight Rules vfr VFR
Wind270° at 08 kt
W.Rank270° ranks 4
Current wind is below 270° avg. (15.9)
Visibility9999 m
Phenomena:N/A
Clouds:N/A
Expected CloudBase > 2,800 ft AGL from Temp-Dew spread
CeilingNone
Temp22°C (ISA +7)
Dew Point15°C (65% RH)
AAT20.8°C
QNH1015 hPa
Density Alt994 ft
Elevation16 ft
Report Wrong Elevation
Raw Report
METAR EHVL 221355Z AUTO 27008KT 9999 NCD 22/15 Q1015 BLU=

Extra information for EHVL:More info

Metar Taf Metar & Taf Last 4 Metars F.Rules Stats Wind Profile Meteogram Temp Stats Airport Information Weather charts Add Link Nearby VenuesMetar ALERT Operation Metar Decoded Social comments